CYAZ/YAZ METAR and TAF weather

Enter ICAO airport designator
Station Type Date Time Source
CYAZ METAR 2019/08/24 01:00 UTC NOAA

CYAZ 240100Z 19004KT 15SM SCT044 BKN060 BKN100 16/12 A2995 RMK SC3SC2AC2 LAST STFD OBS/NEXT 241300UTC SLP142 DENSITY ALT 200FT


Station Type Date Time Source
CYAZ Decoded METAR 2019/08/24 01:00 UTC NOAA

Station name not available
Aug 23, 2019 - 09:00 PM EDT / 2019.08.24 0100 UTC
Wind: from the S (190 degrees) at 5 MPH (4 KT):0
Visibility: 15 mile(s):0
Sky conditions: mostly cloudy
Temperature: 60 F (16 C)
Dew Point: 53 F (12 C)
Relative Humidity: 77%
Pressure (altimeter): 29.95 in. Hg (1014 hPa)
ob: CYAZ 240100Z 19004KT 15SM SCT044 BKN060 BKN100 16/12 A2995 RMK SC3SC2AC2 LAST STFD OBS/NEXT 241300UTC SLP142 DENSITY ALT 200FT
cycle: 1

Station Type Date Time Source
CYAZ TAF 2019/08/23 18:00 UTC NOAA

TAF CYAZ 231738Z 2318/2401 VRB03KT P6SM FEW015 BKN080
TEMPO 2318/2322 P6SM -RA SCT015 OVC060
FM232200 17005KT P6SM SCT020 BKN040 OVC080
TEMPO 2322/2401 P6SM -SHRA BKN020 OVC040
RMK NXT FCST WILL BE ISSUED AT 241445Z

Example: see airport list